sensor_id;sensor_type;location;lat;lon;timestamp;pressure;altitude;pressure_sealevel;temperature;humidity
21236;BME280;10775;42.678;26.324;2023-05-20T00:00:48;98737.00;;;17.28;77.05
21236;BME280;10775;42.678;26.324;2023-05-20T00:03:14;98726.09;;;17.35;76.66
21236;BME280;10775;42.678;26.324;2023-05-20T00:05:40;98725.97;;;17.38;76.87
21236;BME280;10775;42.678;26.324;2023-05-20T00:08:05;98724.72;;;17.46;76.97
21236;BME280;10775;42.678;26.324;2023-05-20T00:10:34;98727.25;;;17.49;77.28
21236;BME280;10775;42.678;26.324;2023-05-20T00:12:59;98722.81;;;17.49;76.26
21236;BME280;10775;42.678;26.324;2023-05-20T00:15:25;98720.69;;;17.38;76.27
21236;BME280;10775;42.678;26.324;2023-05-20T00:17:50;98719.53;;;17.44;75.85
21236;BME280;10775;42.678;26.324;2023-05-20T00:20:16;98715.03;;;17.46;76.63
21236;BME280;10775;42.678;26.324;2023-05-20T00:22:41;98714.88;;;17.49;77.39
21236;BME280;10775;42.678;26.324;2023-05-20T00:25:07;98695.59;;;17.47;76.33
21236;BME280;10775;42.678;26.324;2023-05-20T00:27:33;98709.13;;;17.41;75.80
21236;BME280;10775;42.678;26.324;2023-05-20T00:29:58;98699.41;;;17.42;75.90
21236;BME280;10775;42.678;26.324;2023-05-20T00:32:23;98703.19;;;17.36;76.33
21236;BME280;10775;42.678;26.324;2023-05-20T00:34:56;98708.59;;;17.33;76.87
21236;BME280;10775;42.678;26.324;2023-05-20T00:37:22;98711.31;;;17.31;76.87
21236;BME280;10775;42.678;26.324;2023-05-20T00:39:48;98712.44;;;17.45;76.29
21236;BME280;10775;42.678;26.324;2023-05-20T00:42:23;98705.59;;;17.41;76.21
21236;BME280;10775;42.678;26.324;2023-05-20T00:44:49;98703.88;;;17.39;76.33
21236;BME280;10775;42.678;26.324;2023-05-20T00:47:19;98703.09;;;17.37;76.77
21236;BME280;10775;42.678;26.324;2023-05-20T00:49:46;98713.25;;;17.47;76.09
21236;BME280;10775;42.678;26.324;2023-05-20T00:52:13;98720.25;;;17.29;76.79
21236;BME280;10775;42.678;26.324;2023-05-20T00:54:39;98716.47;;;17.34;78.19
21236;BME280;10775;42.678;26.324;2023-05-20T00:57:06;98714.19;;;17.27;77.07
21236;BME280;10775;42.678;26.324;2023-05-20T00:59:36;98718.31;;;17.32;77.74
21236;BME280;10775;42.678;26.324;2023-05-20T01:02:02;98717.03;;;17.22;77.77
21236;BME280;10775;42.678;26.324;2023-05-20T01:04:29;98715.81;;;17.29;78.53
21236;BME280;10775;42.678;26.324;2023-05-20T01:06:54;98715.50;;;17.35;78.83
21236;BME280;10775;42.678;26.324;2023-05-20T01:09:22;98705.53;;;17.04;79.39
21236;BME280;10775;42.678;26.324;2023-05-20T01:11:51;98704.97;;;16.98;79.72
21236;BME280;10775;42.678;26.324;2023-05-20T01:14:20;98705.97;;;16.95;80.22
21236;BME280;10775;42.678;26.324;2023-05-20T01:16:49;98702.72;;;16.88;80.65
21236;BME280;10775;42.678;26.324;2023-05-20T01:19:45;98688.53;;;17.10;80.50
21236;BME280;10775;42.678;26.324;2023-05-20T01:22:10;98701.25;;;17.02;81.31
21236;BME280;10775;42.678;26.324;2023-05-20T01:24:44;98694.25;;;17.01;79.60
21236;BME280;10775;42.678;26.324;2023-05-20T01:27:10;98687.53;;;16.93;79.50
21236;BME280;10775;42.678;26.324;2023-05-20T01:29:39;98693.63;;;16.95;79.84
21236;BME280;10775;42.678;26.324;2023-05-20T01:32:14;98691.19;;;16.91;82.93
21236;BME280;10775;42.678;26.324;2023-05-20T01:34:41;98677.78;;;16.95;80.40
21236;BME280;10775;42.678;26.324;2023-05-20T01:37:08;98693.75;;;16.92;79.32
21236;BME280;10775;42.678;26.324;2023-05-20T01:39:35;98685.53;;;16.99;80.01
21236;BME280;10775;42.678;26.324;2023-05-20T01:42:02;98672.34;;;16.99;79.14
21236;BME280;10775;42.678;26.324;2023-05-20T01:44:29;98680.50;;;17.13;79.48
21236;BME280;10775;42.678;26.324;2023-05-20T01:46:55;98669.06;;;16.93;79.26
21236;BME280;10775;42.678;26.324;2023-05-20T01:49:20;98672.28;;;17.00;81.01
21236;BME280;10775;42.678;26.324;2023-05-20T01:51:46;98678.59;;;17.15;80.01
21236;BME280;10775;42.678;26.324;2023-05-20T01:54:11;98682.25;;;17.12;78.72
21236;BME280;10775;42.678;26.324;2023-05-20T01:56:36;98673.19;;;16.99;80.38
21236;BME280;10775;42.678;26.324;2023-05-20T01:59:02;98676.59;;;17.20;78.95
21236;BME280;10775;42.678;26.324;2023-05-20T02:01:27;98683.69;;;17.01;79.96
21236;BME280;10775;42.678;26.324;2023-05-20T02:03:53;98687.78;;;17.08;80.48
21236;BME280;10775;42.678;26.324;2023-05-20T02:06:18;98686.41;;;16.99;79.96
21236;BME280;10775;42.678;26.324;2023-05-20T02:08:44;98687.38;;;16.97;80.59
21236;BME280;10775;42.678;26.324;2023-05-20T02:11:09;98694.31;;;16.99;80.46
21236;BME280;10775;42.678;26.324;2023-05-20T02:13:34;98697.03;;;17.16;81.61
21236;BME280;10775;42.678;26.324;2023-05-20T02:16:00;98695.81;;;17.05;79.83
21236;BME280;10775;42.678;26.324;2023-05-20T02:18:25;98700.84;;;17.11;80.08
21236;BME280;10775;42.678;26.324;2023-05-20T02:20:51;98709.09;;;17.22;79.60
21236;BME280;10775;42.678;26.324;2023-05-20T02:23:17;98690.25;;;17.49;79.22
21236;BME280;10775;42.678;26.324;2023-05-20T02:25:42;98685.97;;;17.46;79.87
21236;BME280;10775;42.678;26.324;2023-05-20T02:28:08;98693.84;;;17.65;76.75
21236;BME280;10775;42.678;26.324;2023-05-20T02:30:36;98700.59;;;17.34;78.00
21236;BME280;10775;42.678;26.324;2023-05-20T02:33:02;98693.47;;;17.36;78.88
21236;BME280;10775;42.678;26.324;2023-05-20T02:35:27;98705.41;;;17.26;78.67
21236;BME280;10775;42.678;26.324;2023-05-20T02:37:53;98714.69;;;17.16;80.11
21236;BME280;10775;42.678;26.324;2023-05-20T02:40:18;98719.50;;;16.87;79.87
21236;BME280;10775;42.678;26.324;2023-05-20T02:42:44;98721.91;;;16.92;80.48
21236;BME280;10775;42.678;26.324;2023-05-20T02:45:10;98731.47;;;16.94;80.99
21236;BME280;10775;42.678;26.324;2023-05-20T02:47:36;98735.66;;;17.00;79.77
21236;BME280;10775;42.678;26.324;2023-05-20T02:50:02;98730.50;;;16.97;79.40
21236;BME280;10775;42.678;26.324;2023-05-20T02:52:27;98733.13;;;16.97;82.43
21236;BME280;10775;42.678;26.324;2023-05-20T02:54:52;98736.72;;;17.15;79.03
21236;BME280;10775;42.678;26.324;2023-05-20T02:57:18;98723.78;;;16.69;81.49
21236;BME280;10775;42.678;26.324;2023-05-20T02:59:43;98735.06;;;16.73;83.33
21236;BME280;10775;42.678;26.324;2023-05-20T03:02:09;98738.38;;;16.78;80.97
21236;BME280;10775;42.678;26.324;2023-05-20T03:04:34;98725.81;;;17.04;83.37
21236;BME280;10775;42.678;26.324;2023-05-20T03:07:05;98721.66;;;17.17;80.37
21236;BME280;10775;42.678;26.324;2023-05-20T03:09:32;98727.09;;;16.54;83.34
21236;BME280;10775;42.678;26.324;2023-05-20T03:11:57;98716.53;;;16.74;83.10
21236;BME280;10775;42.678;26.324;2023-05-20T03:14:23;98728.00;;;16.53;83.93
21236;BME280;10775;42.678;26.324;2023-05-20T03:16:48;98732.91;;;16.62;85.19
21236;BME280;10775;42.678;26.324;2023-05-20T03:19:13;98724.66;;;16.49;84.62
21236;BME280;10775;42.678;26.324;2023-05-20T03:21:40;98718.06;;;16.80;85.99
21236;BME280;10775;42.678;26.324;2023-05-20T03:24:07;98714.09;;;16.70;83.48
21236;BME280;10775;42.678;26.324;2023-05-20T03:26:33;98730.72;;;16.51;84.80
21236;BME280;10775;42.678;26.324;2023-05-20T03:29:02;98717.25;;;16.58;84.00
21236;BME280;10775;42.678;26.324;2023-05-20T03:31:27;98735.78;;;16.97;81.86
21236;BME280;10775;42.678;26.324;2023-05-20T03:33:52;98732.06;;;16.62;85.56
21236;BME280;10775;42.678;26.324;2023-05-20T03:36:18;98741.38;;;16.69;83.75
21236;BME280;10775;42.678;26.324;2023-05-20T03:38:43;98749.44;;;17.07;82.01
21236;BME280;10775;42.678;26.324;2023-05-20T03:41:09;98752.31;;;17.21;83.61
21236;BME280;10775;42.678;26.324;2023-05-20T03:43:34;98760.47;;;16.76;84.53
21236;BME280;10775;42.678;26.324;2023-05-20T03:46:00;98763.78;;;16.81;83.52
21236;BME280;10775;42.678;26.324;2023-05-20T03:48:26;98769.53;;;16.49;84.55
21236;BME280;10775;42.678;26.324;2023-05-20T03:50:51;98763.50;;;16.46;84.92
21236;BME280;10775;42.678;26.324;2023-05-20T03:53:16;98774.97;;;16.87;84.40
21236;BME280;10775;42.678;26.324;2023-05-20T03:55:44;98777.56;;;17.08;82.81
21236;BME280;10775;42.678;26.324;2023-05-20T03:58:09;98798.41;;;16.52;85.39
21236;BME280;10775;42.678;26.324;2023-05-20T04:00:35;98783.44;;;16.73;85.61
21236;BME280;10775;42.678;26.324;2023-05-20T04:03:00;98791.34;;;17.14;83.46
21236;BME280;10775;42.678;26.324;2023-05-20T04:05:26;98789.25;;;17.42;81.37
21236;BME280;10775;42.678;26.324;2023-05-20T04:07:51;98795.13;;;17.09;82.88
21236;BME280;10775;42.678;26.324;2023-05-20T04:10:18;98803.88;;;16.90;84.18
21236;BME280;10775;42.678;26.324;2023-05-20T04:12:44;98809.09;;;17.31;82.66
21236;BME280;10775;42.678;26.324;2023-05-20T04:15:10;98808.94;;;16.95;83.56
21236;BME280;10775;42.678;26.324;2023-05-20T04:17:37;98805.59;;;17.31;83.14
21236;BME280;10775;42.678;26.324;2023-05-20T04:20:05;98803.94;;;17.47;82.81
21236;BME280;10775;42.678;26.324;2023-05-20T04:22:32;98809.63;;;17.19;81.92
21236;BME280;10775;42.678;26.324;2023-05-20T04:24:58;98799.00;;;17.39;82.09
21236;BME280;10775;42.678;26.324;2023-05-20T04:27:24;98802.91;;;17.12;82.60
21236;BME280;10775;42.678;26.324;2023-05-20T04:29:50;98804.00;;;17.27;82.47
21236;BME280;10775;42.678;26.324;2023-05-20T04:32:17;98810.13;;;17.08;82.97
21236;BME280;10775;42.678;26.324;2023-05-20T04:34:43;98801.31;;;17.28;82.46
21236;BME280;10775;42.678;26.324;2023-05-20T04:37:09;98792.16;;;17.35;81.67
21236;BME280;10775;42.678;26.324;2023-05-20T04:39:35;98795.19;;;17.85;80.72
21236;BME280;10775;42.678;26.324;2023-05-20T04:42:01;98798.81;;;17.63;80.51
21236;BME280;10775;42.678;26.324;2023-05-20T04:44:27;98797.72;;;17.48;81.40
21236;BME280;10775;42.678;26.324;2023-05-20T04:46:54;98786.31;;;17.86;80.40
21236;BME280;10775;42.678;26.324;2023-05-20T04:49:20;98796.44;;;17.38;80.73
21236;BME280;10775;42.678;26.324;2023-05-20T04:51:46;98797.31;;;17.57;81.68
21236;BME280;10775;42.678;26.324;2023-05-20T04:54:14;98795.31;;;17.63;80.10
21236;BME280;10775;42.678;26.324;2023-05-20T04:56:42;98802.38;;;17.62;81.17
21236;BME280;10775;42.678;26.324;2023-05-20T04:59:08;98799.53;;;17.86;79.52
21236;BME280;10775;42.678;26.324;2023-05-20T05:01:35;98791.09;;;17.77;80.32
21236;BME280;10775;42.678;26.324;2023-05-20T05:04:01;98799.84;;;17.79;80.79
21236;BME280;10775;42.678;26.324;2023-05-20T05:06:26;98790.59;;;17.69;80.31
21236;BME280;10775;42.678;26.324;2023-05-20T05:08:52;98799.72;;;17.43;80.99
21236;BME280;10775;42.678;26.324;2023-05-20T05:11:17;98799.31;;;17.52;81.65
21236;BME280;10775;42.678;26.324;2023-05-20T05:13:43;98802.81;;;17.53;80.78
21236;BME280;10775;42.678;26.324;2023-05-20T05:16:08;98803.94;;;17.66;79.46
21236;BME280;10775;42.678;26.324;2023-05-20T05:18:33;98799.28;;;17.71;80.11
21236;BME280;10775;42.678;26.324;2023-05-20T05:21:00;98804.19;;;17.80;80.16
21236;BME280;10775;42.678;26.324;2023-05-20T05:23:26;98807.53;;;18.57;77.22
21236;BME280;10775;42.678;26.324;2023-05-20T05:25:52;98807.47;;;17.86;77.96
21236;BME280;10775;42.678;26.324;2023-05-20T05:28:17;98805.66;;;18.05;78.87
21236;BME280;10775;42.678;26.324;2023-05-20T05:30:43;98813.16;;;17.76;77.68
21236;BME280;10775;42.678;26.324;2023-05-20T05:33:08;98825.19;;;17.84;78.60
21236;BME280;10775;42.678;26.324;2023-05-20T05:35:33;98817.63;;;17.95;78.44
21236;BME280;10775;42.678;26.324;2023-05-20T05:37:59;98821.38;;;18.08;78.18
21236;BME280;10775;42.678;26.324;2023-05-20T05:40:26;98827.09;;;18.35;77.30
21236;BME280;10775;42.678;26.324;2023-05-20T05:42:51;98818.97;;;18.57;76.17
21236;BME280;10775;42.678;26.324;2023-05-20T05:45:17;98821.94;;;18.51;76.07
21236;BME280;10775;42.678;26.324;2023-05-20T05:47:42;98823.59;;;18.35;76.16
21236;BME280;10775;42.678;26.324;2023-05-20T05:50:08;98822.84;;;18.50;76.80
21236;BME280;10775;42.678;26.324;2023-05-20T05:52:34;98834.22;;;18.52;76.55
21236;BME280;10775;42.678;26.324;2023-05-20T05:55:00;98830.44;;;18.21;75.29
21236;BME280;10775;42.678;26.324;2023-05-20T05:57:26;98826.03;;;18.39;76.07
21236;BME280;10775;42.678;26.324;2023-05-20T05:59:51;98823.41;;;18.03;77.35
21236;BME280;10775;42.678;26.324;2023-05-20T06:02:17;98831.13;;;18.08;77.20
21236;BME280;10775;42.678;26.324;2023-05-20T06:04:42;98828.63;;;18.41;76.98
21236;BME280;10775;42.678;26.324;2023-05-20T06:07:08;98834.63;;;18.62;76.16
21236;BME280;10775;42.678;26.324;2023-05-20T06:09:33;98824.81;;;18.81;75.37
21236;BME280;10775;42.678;26.324;2023-05-20T06:11:59;98809.78;;;18.47;75.13
21236;BME280;10775;42.678;26.324;2023-05-20T06:14:24;98826.94;;;18.92;75.18
21236;BME280;10775;42.678;26.324;2023-05-20T06:16:50;98822.03;;;18.13;77.76
21236;BME280;10775;42.678;26.324;2023-05-20T06:19:16;98826.38;;;18.85;74.89
21236;BME280;10775;42.678;26.324;2023-05-20T06:21:42;98822.56;;;18.91;73.95
21236;BME280;10775;42.678;26.324;2023-05-20T06:24:07;98828.88;;;19.06;74.45
21236;BME280;10775;42.678;26.324;2023-05-20T06:26:33;98827.50;;;19.15;74.66
21236;BME280;10775;42.678;26.324;2023-05-20T06:28:58;98837.16;;;19.00;75.81
21236;BME280;10775;42.678;26.324;2023-05-20T06:31:24;98816.47;;;20.05;71.37
21236;BME280;10775;42.678;26.324;2023-05-20T06:33:49;98832.47;;;19.71;71.63
21236;BME280;10775;42.678;26.324;2023-05-20T06:36:16;98835.44;;;19.81;71.30
21236;BME280;10775;42.678;26.324;2023-05-20T06:38:41;98838.03;;;19.98;70.45
21236;BME280;10775;42.678;26.324;2023-05-20T06:41:07;98846.06;;;19.48;72.87
21236;BME280;10775;42.678;26.324;2023-05-20T06:43:32;98854.53;;;19.39;72.72
21236;BME280;10775;42.678;26.324;2023-05-20T06:45:58;98849.31;;;19.20;73.47
21236;BME280;10775;42.678;26.324;2023-05-20T06:48:24;98854.91;;;19.48;72.47
21236;BME280;10775;42.678;26.324;2023-05-20T06:50:49;98856.53;;;19.00;73.63
21236;BME280;10775;42.678;26.324;2023-05-20T06:53:15;98868.22;;;18.79;74.23
21236;BME280;10775;42.678;26.324;2023-05-20T06:55:41;98887.34;;;18.30;73.58
21236;BME280;10775;42.678;26.324;2023-05-20T06:58:06;98872.19;;;18.34;75.62
21236;BME280;10775;42.678;26.324;2023-05-20T07:00:32;98865.22;;;18.14;74.39
21236;BME280;10775;42.678;26.324;2023-05-20T07:02:57;98869.53;;;18.34;74.11
21236;BME280;10775;42.678;26.324;2023-05-20T07:05:22;98861.59;;;17.97;76.17
21236;BME280;10775;42.678;26.324;2023-05-20T07:07:49;98872.44;;;17.91;75.89
21236;BME280;10775;42.678;26.324;2023-05-20T07:10:14;98853.88;;;17.93;76.05
21236;BME280;10775;42.678;26.324;2023-05-20T07:12:40;98855.28;;;17.81;76.65
21236;BME280;10775;42.678;26.324;2023-05-20T07:15:06;98848.81;;;17.68;77.42
21236;BME280;10775;42.678;26.324;2023-05-20T07:17:31;98843.03;;;17.78;78.77
21236;BME280;10775;42.678;26.324;2023-05-20T07:19:57;98843.19;;;17.94;77.69
21236;BME280;10775;42.678;26.324;2023-05-20T07:22:22;98844.56;;;18.03;77.55
21236;BME280;10775;42.678;26.324;2023-05-20T07:24:48;98842.19;;;17.97;76.36
21236;BME280;10775;42.678;26.324;2023-05-20T07:27:13;98831.75;;;17.94;75.54
21236;BME280;10775;42.678;26.324;2023-05-20T07:29:39;98837.56;;;17.83;77.19
21236;BME280;10775;42.678;26.324;2023-05-20T07:32:05;98850.16;;;17.76;77.04
21236;BME280;10775;42.678;26.324;2023-05-20T07:34:30;98844.97;;;17.75;77.16
21236;BME280;10775;42.678;26.324;2023-05-20T07:36:56;98840.31;;;17.61;77.18
21236;BME280;10775;42.678;26.324;2023-05-20T07:39:22;98834.03;;;17.64;77.75
21236;BME280;10775;42.678;26.324;2023-05-20T07:41:48;98826.09;;;17.64;78.91
21236;BME280;10775;42.678;26.324;2023-05-20T07:44:14;98835.41;;;17.72;78.58
21236;BME280;10775;42.678;26.324;2023-05-20T07:46:39;98828.63;;;17.86;77.70
21236;BME280;10775;42.678;26.324;2023-05-20T07:49:06;98815.34;;;17.87;77.11
21236;BME280;10775;42.678;26.324;2023-05-20T07:51:32;98810.31;;;18.00;76.52
21236;BME280;10775;42.678;26.324;2023-05-20T07:53:57;98799.75;;;18.00;77.89
21236;BME280;10775;42.678;26.324;2023-05-20T07:56:23;98804.72;;;18.06;75.74
21236;BME280;10775;42.678;26.324;2023-05-20T07:58:57;98790.44;;;18.10;76.89
21236;BME280;10775;42.678;26.324;2023-05-20T08:01:24;98792.50;;;18.03;77.05
21236;BME280;10775;42.678;26.324;2023-05-20T08:03:50;98771.38;;;18.21;75.94
21236;BME280;10775;42.678;26.324;2023-05-20T08:06:15;98782.19;;;18.16;74.64
21236;BME280;10775;42.678;26.324;2023-05-20T08:08:41;98776.81;;;18.18;75.19
21236;BME280;10775;42.678;26.324;2023-05-20T08:11:07;98793.03;;;17.93;75.59
21236;BME280;10775;42.678;26.324;2023-05-20T08:13:32;98756.91;;;17.92;76.36
21236;BME280;10775;42.678;26.324;2023-05-20T08:15:58;98777.75;;;17.80;76.24
21236;BME280;10775;42.678;26.324;2023-05-20T08:18:23;98759.34;;;17.96;76.71
21236;BME280;10775;42.678;26.324;2023-05-20T08:20:49;98757.81;;;17.92;76.59
21236;BME280;10775;42.678;26.324;2023-05-20T08:23:15;98755.84;;;17.96;74.74
21236;BME280;10775;42.678;26.324;2023-05-20T08:25:41;98755.31;;;18.07;74.96
21236;BME280;10775;42.678;26.324;2023-05-20T08:28:06;98741.25;;;18.06;74.99
21236;BME280;10775;42.678;26.324;2023-05-20T08:30:32;98747.09;;;18.13;74.10
21236;BME280;10775;42.678;26.324;2023-05-20T08:32:59;98746.97;;;18.33;73.96
21236;BME280;10775;42.678;26.324;2023-05-20T08:35:24;98750.34;;;18.35;72.07
21236;BME280;10775;42.678;26.324;2023-05-20T08:37:50;98747.94;;;18.48;71.00
21236;BME280;10775;42.678;26.324;2023-05-20T08:40:18;98758.53;;;18.48;71.25
21236;BME280;10775;42.678;26.324;2023-05-20T08:42:45;98763.81;;;18.65;69.92
21236;BME280;10775;42.678;26.324;2023-05-20T08:45:14;98757.00;;;18.61;68.50
21236;BME280;10775;42.678;26.324;2023-05-20T08:47:41;98751.19;;;18.71;67.01
21236;BME280;10775;42.678;26.324;2023-05-20T08:50:08;98751.78;;;18.77;67.05
21236;BME280;10775;42.678;26.324;2023-05-20T08:52:35;98763.19;;;18.95;69.21
21236;BME280;10775;42.678;26.324;2023-05-20T08:55:02;98754.00;;;19.02;67.19
21236;BME280;10775;42.678;26.324;2023-05-20T08:57:28;98738.09;;;19.02;66.58
21236;BME280;10775;42.678;26.324;2023-05-20T08:59:54;98742.25;;;18.90;65.43
21236;BME280;10775;42.678;26.324;2023-05-20T09:02:21;98744.81;;;18.92;65.08
21236;BME280;10775;42.678;26.324;2023-05-20T09:04:47;98758.41;;;19.02;64.38
21236;BME280;10775;42.678;26.324;2023-05-20T09:07:12;98760.81;;;19.06;62.75
21236;BME280;10775;42.678;26.324;2023-05-20T09:09:38;98752.47;;;19.14;62.57
21236;BME280;10775;42.678;26.324;2023-05-20T09:12:03;98726.50;;;19.21;63.05
21236;BME280;10775;42.678;26.324;2023-05-20T09:14:29;98744.03;;;19.23;62.80
21236;BME280;10775;42.678;26.324;2023-05-20T09:16:55;98729.84;;;19.40;63.42
21236;BME280;10775;42.678;26.324;2023-05-20T09:19:22;98745.00;;;19.38;62.95
21236;BME280;10775;42.678;26.324;2023-05-20T09:21:48;98739.84;;;19.35;62.15
21236;BME280;10775;42.678;26.324;2023-05-20T09:24:13;98731.66;;;19.40;63.50
21236;BME280;10775;42.678;26.324;2023-05-20T09:26:38;98707.72;;;19.41;60.56
21236;BME280;10775;42.678;26.324;2023-05-20T09:29:04;98719.41;;;19.37;61.81
21236;BME280;10775;42.678;26.324;2023-05-20T09:31:30;98743.97;;;19.41;64.37
21236;BME280;10775;42.678;26.324;2023-05-20T09:33:59;98726.44;;;19.38;64.55
21236;BME280;10775;42.678;26.324;2023-05-20T09:36:27;98719.22;;;19.24;64.93
21236;BME280;10775;42.678;26.324;2023-05-20T09:38:58;98726.75;;;19.16;63.85
21236;BME280;10775;42.678;26.324;2023-05-20T09:41:32;98730.59;;;19.10;65.07
21236;BME280;10775;42.678;26.324;2023-05-20T09:43:58;98750.19;;;18.90;65.05
21236;BME280;10775;42.678;26.324;2023-05-20T09:46:25;98740.88;;;18.99;64.72
21236;BME280;10775;42.678;26.324;2023-05-20T09:48:51;98729.22;;;19.03;65.52
21236;BME280;10775;42.678;26.324;2023-05-20T09:51:17;98745.50;;;18.96;64.82
21236;BME280;10775;42.678;26.324;2023-05-20T09:53:42;98748.31;;;18.93;65.98
21236;BME280;10775;42.678;26.324;2023-05-20T09:56:08;98732.91;;;18.83;65.72
21236;BME280;10775;42.678;26.324;2023-05-20T09:58:35;98762.28;;;18.79;65.10
21236;BME280;10775;42.678;26.324;2023-05-20T10:01:01;98758.31;;;18.87;65.38
21236;BME280;10775;42.678;26.324;2023-05-20T10:03:26;98746.97;;;19.01;65.26
21236;BME280;10775;42.678;26.324;2023-05-20T10:19:46;98764.88;;;19.14;68.50
21236;BME280;10775;42.678;26.324;2023-05-20T10:22:18;98772.22;;;19.08;67.02
21236;BME280;10775;42.678;26.324;2023-05-20T10:25:01;98780.16;;;19.08;67.94
21236;BME280;10775;42.678;26.324;2023-05-20T10:27:41;98782.75;;;19.26;70.29
21236;BME280;10775;42.678;26.324;2023-05-20T10:30:15;98772.72;;;19.48;69.14
21236;BME280;10775;42.678;26.324;2023-05-20T10:32:52;98772.66;;;19.32;69.95
21236;BME280;10775;42.678;26.324;2023-05-20T10:35:22;98778.13;;;19.14;67.52
21236;BME280;10775;42.678;26.324;2023-05-20T10:37:51;98768.28;;;19.16;69.67
21236;BME280;10775;42.678;26.324;2023-05-20T10:40:18;98777.72;;;19.37;69.41
21236;BME280;10775;42.678;26.324;2023-05-20T10:42:44;98773.19;;;19.39;69.42
21236;BME280;10775;42.678;26.324;2023-05-20T10:45:10;98773.88;;;19.27;70.08
21236;BME280;10775;42.678;26.324;2023-05-20T10:47:41;98779.25;;;18.92;69.21
21236;BME280;10775;42.678;26.324;2023-05-20T10:50:07;98787.69;;;19.16;70.84
21236;BME280;10775;42.678;26.324;2023-05-20T10:52:35;98785.84;;;19.34;69.30
21236;BME280;10775;42.678;26.324;2023-05-20T10:55:01;98798.22;;;19.18;68.88
21236;BME280;10775;42.678;26.324;2023-05-20T10:57:28;98791.81;;;19.22;69.41
21236;BME280;10775;42.678;26.324;2023-05-20T10:59:54;98800.56;;;19.40;68.91
21236;BME280;10775;42.678;26.324;2023-05-20T11:02:20;98812.75;;;19.60;68.53
21236;BME280;10775;42.678;26.324;2023-05-20T11:04:51;98815.69;;;19.71;69.38
21236;BME280;10775;42.678;26.324;2023-05-20T11:07:30;98807.44;;;19.60;69.49
21236;BME280;10775;42.678;26.324;2023-05-20T11:09:57;98798.38;;;19.64;68.95
21236;BME280;10775;42.678;26.324;2023-05-20T11:12:26;98801.16;;;19.29;68.61
21236;BME280;10775;42.678;26.324;2023-05-20T11:14:52;98801.94;;;19.31;69.21
21236;BME280;10775;42.678;26.324;2023-05-20T11:17:18;98798.31;;;19.32;69.45
21236;BME280;10775;42.678;26.324;2023-05-20T11:19:45;98812.84;;;19.25;69.45
21236;BME280;10775;42.678;26.324;2023-05-20T11:22:11;98793.38;;;19.26;69.20
21236;BME280;10775;42.678;26.324;2023-05-20T11:24:36;98779.19;;;19.43;70.32
21236;BME280;10775;42.678;26.324;2023-05-20T11:27:02;98786.72;;;19.50;69.87
21236;BME280;10775;42.678;26.324;2023-05-20T11:29:27;98794.44;;;19.22;70.43
21236;BME280;10775;42.678;26.324;2023-05-20T11:31:56;98794.63;;;19.19;70.50
21236;BME280;10775;42.678;26.324;2023-05-20T11:34:22;98793.38;;;19.26;70.44
21236;BME280;10775;42.678;26.324;2023-05-20T11:36:54;98788.25;;;19.23;70.65
21236;BME280;10775;42.678;26.324;2023-05-20T11:39:20;98780.19;;;19.24;69.80
21236;BME280;10775;42.678;26.324;2023-05-20T11:41:46;98779.50;;;19.21;70.24
21236;BME280;10775;42.678;26.324;2023-05-20T11:44:12;98777.13;;;19.32;69.82
21236;BME280;10775;42.678;26.324;2023-05-20T11:46:45;98770.81;;;19.50;69.18
21236;BME280;10775;42.678;26.324;2023-05-20T11:49:15;98764.22;;;19.58;68.95
21236;BME280;10775;42.678;26.324;2023-05-20T11:51:42;98757.19;;;19.74;68.95
21236;BME280;10775;42.678;26.324;2023-05-20T11:54:08;98753.22;;;19.97;69.19
21236;BME280;10775;42.678;26.324;2023-05-20T11:56:38;98751.53;;;20.26;68.24
21236;BME280;10775;42.678;26.324;2023-05-20T11:59:07;98739.44;;;20.36;68.21
21236;BME280;10775;42.678;26.324;2023-05-20T12:01:35;98739.06;;;20.58;66.85
21236;BME280;10775;42.678;26.324;2023-05-20T12:04:05;98728.06;;;20.79;65.57
21236;BME280;10775;42.678;26.324;2023-05-20T12:06:30;98728.56;;;21.00;65.39
21236;BME280;10775;42.678;26.324;2023-05-20T12:08:59;98722.16;;;21.31;63.35
21236;BME280;10775;42.678;26.324;2023-05-20T12:11:31;98710.19;;;21.24;63.23
21236;BME280;10775;42.678;26.324;2023-05-20T12:13:56;98704.53;;;21.71;64.06
21236;BME280;10775;42.678;26.324;2023-05-20T12:16:21;98703.22;;;21.64;62.96
21236;BME280;10775;42.678;26.324;2023-05-20T12:18:47;98700.72;;;21.48;62.79
21236;BME280;10775;42.678;26.324;2023-05-20T12:21:12;98693.56;;;21.63;62.60
21236;BME280;10775;42.678;26.324;2023-05-20T12:23:38;98681.06;;;21.78;62.92
21236;BME280;10775;42.678;26.324;2023-05-20T12:26:03;98675.16;;;22.13;61.38
21236;BME280;10775;42.678;26.324;2023-05-20T12:28:29;98679.63;;;22.27;61.00
21236;BME280;10775;42.678;26.324;2023-05-20T12:30:56;98663.66;;;22.52;59.99
21236;BME280;10775;42.678;26.324;2023-05-20T12:33:21;98674.50;;;22.36;58.56
21236;BME280;10775;42.678;26.324;2023-05-20T12:35:47;98673.63;;;21.83;60.83
21236;BME280;10775;42.678;26.324;2023-05-20T12:38:12;98670.13;;;21.96;59.80
21236;BME280;10775;42.678;26.324;2023-05-20T12:40:37;98655.84;;;21.84;59.15
21236;BME280;10775;42.678;26.324;2023-05-20T12:43:04;98653.94;;;21.86;60.25
21236;BME280;10775;42.678;26.324;2023-05-20T12:45:30;98658.03;;;21.77;60.83
21236;BME280;10775;42.678;26.324;2023-05-20T12:47:56;98657.72;;;21.69;59.79
21236;BME280;10775;42.678;26.324;2023-05-20T12:50:22;98639.19;;;21.67;61.02
21236;BME280;10775;42.678;26.324;2023-05-20T12:52:48;98649.22;;;21.77;61.48
21236;BME280;10775;42.678;26.324;2023-05-20T12:55:14;98660.03;;;21.61;61.99
21236;BME280;10775;42.678;26.324;2023-05-20T12:57:40;98638.91;;;21.45;62.07
21236;BME280;10775;42.678;26.324;2023-05-20T13:00:09;98637.94;;;21.46;62.50